Rimrock, California
Current Conditions -  °F | °C
As of 5:35 PM on Monday 20 Oct 2014 (Local Time) from KL35 Reporting Station
Clear Clear  
Wind Chill: 55°   Ceiling: Unl
Heat Index: 55°   Visibility: 10mi
Dew Point: 34°   Wind: 10mph
Humidity: 44%   Direction: 260°W
Pressure: 30.12"   Gusts: NA
Location:  34.1944°N, 116.548°W
Report Text: KL35 210035Z AUTO 26009KT 10SM CLR 13/01 A3012 RMK AO2
Loading
Personal Weather Stations






























Interactive Weather Map
Tropical Storm Tracking
New forecast layout! Learn more

10-Day Weather Forecast

Advertisements
Track Severe Weather on mobile